createdAt,value
2019-01-26T00:00:48.285Z,84.15
2019-01-26T00:03:17.247Z,81.18
2019-01-26T00:05:45.892Z,79.40
2019-01-26T00:08:14.497Z,79.57
2019-01-26T00:10:43.070Z,79.21
2019-01-26T00:13:11.627Z,79.38
2019-01-26T00:15:41.176Z,80.87
2019-01-26T00:18:09.810Z,80.76
2019-01-26T00:20:38.465Z,80.29
2019-01-26T00:23:07.027Z,80.70
2019-01-26T00:25:35.622Z,80.54
2019-01-26T00:28:04.211Z,80.42
2019-01-26T00:30:32.839Z,80.38
2019-01-26T00:33:01.375Z,79.81
2019-01-26T00:35:30.015Z,80.69
2019-01-26T00:37:58.596Z,81.63
2019-01-26T00:40:27.222Z,80.09
2019-01-26T00:42:55.802Z,79.79
2019-01-26T00:45:24.432Z,78.94
2019-01-26T00:47:53.059Z,78.71
2019-01-26T00:50:21.637Z,79.17
2019-01-26T00:52:50.278Z,79.29
2019-01-26T00:55:18.919Z,78.97
2019-01-26T00:57:47.504Z,78.37
2019-01-26T01:00:22.746Z,78.96
2019-01-26T01:02:51.379Z,79.07
2019-01-26T01:05:19.955Z,78.97
2019-01-26T01:07:48.681Z,79.18
2019-01-26T01:10:19.212Z,79.51
2019-01-26T01:12:47.802Z,82.31
2019-01-26T01:15:18.928Z,79.87
2019-01-26T01:17:47.587Z,78.25
2019-01-26T01:20:16.501Z,78.80
2019-01-26T01:22:45.122Z,78.60
2019-01-26T01:25:14.438Z,79.61
2019-01-26T01:27:43.053Z,79.81
2019-01-26T01:30:17.707Z,79.47
2019-01-26T01:32:46.416Z,79.75
2019-01-26T01:35:15.045Z,79.98
2019-01-26T01:37:43.593Z,80.10
2019-01-26T01:40:14.423Z,80.06
2019-01-26T01:42:43.021Z,80.28
2019-01-26T01:45:22.779Z,80.70
2019-01-26T01:47:51.372Z,81.15
2019-01-26T01:50:19.976Z,80.80
2019-01-26T01:52:48.610Z,79.82
2019-01-26T01:55:17.275Z,80.23
2019-01-26T01:57:45.853Z,80.16
2019-01-26T02:00:23.191Z,80.30
2019-01-26T02:02:51.783Z,79.80
2019-01-26T02:05:20.359Z,79.63
2019-01-26T02:07:48.982Z,79.63
2019-01-26T02:10:20.035Z,80.68
2019-01-26T02:12:49.062Z,80.46
2019-01-26T02:15:17.689Z,80.00
2019-01-26T02:17:46.311Z,79.75
2019-01-26T02:20:17.930Z,80.04
2019-01-26T02:22:46.541Z,80.46
2019-01-26T02:25:15.097Z,80.70
2019-01-26T02:27:44.717Z,79.35
2019-01-26T02:30:19.215Z,79.58
2019-01-26T02:32:47.811Z,79.19
2019-01-26T02:35:16.680Z,78.97
2019-01-26T02:37:45.320Z,78.93
2019-01-26T02:40:16.436Z,80.20
2019-01-26T02:42:45.066Z,79.85
2019-01-26T02:45:14.886Z,79.83
2019-01-26T02:47:43.486Z,79.71
2019-01-26T02:50:14.130Z,79.76
2019-01-26T02:52:42.747Z,80.12
2019-01-26T02:55:11.764Z,80.16
2019-01-26T02:57:40.397Z,80.25
2019-01-26T03:00:22.678Z,81.18
2019-01-26T03:02:51.455Z,79.38
2019-01-26T03:05:20.046Z,79.13
2019-01-26T03:07:48.767Z,79.37
2019-01-26T03:10:19.645Z,79.08
2019-01-26T03:12:48.276Z,79.37
2019-01-26T03:15:21.979Z,79.65
2019-01-26T03:17:50.653Z,79.82
2019-01-26T03:20:19.593Z,80.19
2019-01-26T03:22:48.210Z,80.06
2019-01-26T03:25:16.800Z,80.00
2019-01-26T03:27:45.396Z,79.72
2019-01-26T03:30:22.443Z,79.28
2019-01-26T03:32:51.030Z,79.67
2019-01-26T03:35:19.711Z,81.26
2019-01-26T03:37:48.296Z,79.08
2019-01-26T03:40:21.309Z,79.45
2019-01-26T03:42:49.888Z,78.85
2019-01-26T03:45:18.506Z,79.50
2019-01-26T03:47:47.082Z,79.79
2019-01-26T03:50:16.408Z,79.45
2019-01-26T03:52:45.019Z,79.87
2019-01-26T03:55:16.318Z,80.09
2019-01-26T03:57:44.928Z,79.57
2019-01-26T04:00:16.458Z,79.70
2019-01-26T04:02:45.123Z,79.80
2019-01-26T04:05:14.048Z,79.45
2019-01-26T04:07:42.735Z,79.89
2019-01-26T04:10:13.621Z,80.45
2019-01-26T04:12:42.199Z,79.74
2019-01-26T04:15:14.488Z,78.94
2019-01-26T04:17:43.085Z,78.90
2019-01-26T04:20:19.867Z,78.84
2019-01-26T04:22:48.495Z,79.15
2019-01-26T04:25:17.094Z,79.34
2019-01-26T04:27:45.710Z,79.84
2019-01-26T04:30:19.570Z,79.81
2019-01-26T04:32:48.163Z,80.10
2019-01-26T04:35:17.063Z,79.68
2019-01-26T04:37:45.678Z,79.86
2019-01-26T04:40:16.205Z,79.62
2019-01-26T04:42:44.795Z,79.82
2019-01-26T04:45:16.221Z,80.44
2019-01-26T04:47:44.836Z,80.63
2019-01-26T04:50:15.520Z,79.06
2019-01-26T04:52:44.117Z,79.07
2019-01-26T04:55:13.193Z,79.48
2019-01-26T04:57:41.911Z,79.62
2019-01-26T05:00:18.983Z,79.03
2019-01-26T05:02:47.573Z,79.83
2019-01-26T05:05:16.299Z,80.40
2019-01-26T05:07:44.830Z,80.29
2019-01-26T05:10:15.767Z,80.51
2019-01-26T05:12:44.271Z,80.16
2019-01-26T05:15:14.204Z,80.02
2019-01-26T05:17:42.939Z,80.19
2019-01-26T05:20:17.151Z,80.34
2019-01-26T05:22:45.764Z,81.52
2019-01-26T05:25:14.477Z,79.50
2019-01-26T05:27:43.074Z,79.58
2019-01-26T05:30:15.001Z,79.05
2019-01-26T05:32:43.624Z,78.94
2019-01-26T05:35:12.242Z,79.25
2019-01-26T05:37:40.890Z,79.82
2019-01-26T05:40:12.376Z,80.61
2019-01-26T05:42:41.008Z,80.33
2019-01-26T05:45:12.517Z,80.07
2019-01-26T05:47:48.217Z,79.91
2019-01-26T05:50:17.969Z,80.11
2019-01-26T05:52:46.590Z,80.42
2019-01-26T05:55:15.193Z,80.24
2019-01-26T05:57:43.778Z,81.14
2019-01-26T06:00:24.809Z,79.31
2019-01-26T06:02:53.445Z,78.68
2019-01-26T06:05:22.046Z,79.23
2019-01-26T06:07:50.677Z,79.62
2019-01-26T06:10:19.237Z,79.39
2019-01-26T06:12:47.792Z,79.04
2019-01-26T06:15:16.510Z,79.51
2019-01-26T06:17:45.232Z,79.19
2019-01-26T06:20:15.529Z,79.94
2019-01-26T06:22:44.113Z,79.60
2019-01-26T06:25:15.537Z,79.18
2019-01-26T06:27:44.124Z,79.81
2019-01-26T06:30:15.316Z,79.75
2019-01-26T06:32:43.823Z,81.27
2019-01-26T06:35:12.620Z,79.97
2019-01-26T06:37:41.252Z,78.78
2019-01-26T06:40:12.383Z,79.02
2019-01-26T06:42:40.980Z,78.63
2019-01-26T06:45:11.510Z,78.51
2019-01-26T06:47:40.099Z,78.19
2019-01-26T06:50:11.968Z,78.80
2019-01-26T06:52:40.518Z,79.63
2019-01-26T06:55:10.518Z,79.10
2019-01-26T06:57:39.338Z,79.17
2019-01-26T07:00:16.683Z,79.93
2019-01-26T07:02:45.205Z,79.65
2019-01-26T07:05:18.593Z,79.49
2019-01-26T07:07:47.157Z,80.32
2019-01-26T07:10:15.789Z,80.01
2019-01-26T07:12:44.301Z,78.89
2019-01-26T07:15:14.088Z,78.32
2019-01-26T07:17:42.677Z,77.94
2019-01-26T07:20:14.073Z,78.78
2019-01-26T07:22:42.690Z,77.80
2019-01-26T07:25:11.316Z,78.13
2019-01-26T07:27:39.912Z,78.93
2019-01-26T07:30:11.566Z,78.93
2019-01-26T07:32:40.224Z,78.58
2019-01-26T07:35:08.829Z,78.52
2019-01-26T07:37:37.284Z,78.52
2019-01-26T07:40:08.811Z,78.66
2019-01-26T07:42:37.260Z,78.91
2019-01-26T07:45:11.035Z,79.54
2019-01-26T07:47:39.635Z,77.51
2019-01-26T07:50:13.997Z,77.02
2019-01-26T07:52:42.685Z,77.58
2019-01-26T07:55:11.391Z,77.25
2019-01-26T07:57:40.021Z,77.75
2019-01-26T08:00:17.509Z,78.46
2019-01-26T08:02:46.135Z,77.40
2019-01-26T08:05:14.807Z,77.67
2019-01-26T08:07:43.466Z,77.81
2019-01-26T08:10:15.221Z,77.88
2019-01-26T08:12:43.824Z,78.29
2019-01-26T08:15:15.430Z,78.55
2019-01-26T08:17:44.030Z,78.53
2019-01-26T08:20:17.771Z,82.79
2019-01-26T08:22:46.369Z,78.40
2019-01-26T08:25:14.947Z,77.40
2019-01-26T08:27:43.574Z,77.83
2019-01-26T08:30:18.104Z,78.23
2019-01-26T08:32:46.730Z,78.52
2019-01-26T08:35:15.341Z,78.67
2019-01-26T08:37:43.944Z,79.18
2019-01-26T08:40:15.225Z,78.59
2019-01-26T08:42:43.825Z,78.73
2019-01-26T08:45:14.394Z,78.33
2019-01-26T08:47:43.285Z,78.73
2019-01-26T08:50:14.577Z,78.62
2019-01-26T08:52:43.234Z,79.35
2019-01-26T08:55:18.089Z,83.51
2019-01-26T08:57:43.575Z,79.49
2019-01-26T09:00:18.559Z,79.39
2019-01-26T09:02:55.769Z,79.41
2019-01-26T09:05:26.544Z,78.77
2019-01-26T09:07:55.055Z,79.21
2019-01-26T09:10:23.703Z,79.35
2019-01-26T09:12:52.277Z,79.16
2019-01-26T09:15:21.765Z,79.73
2019-01-26T09:17:50.350Z,79.61
2019-01-26T09:20:19.173Z,79.11
2019-01-26T09:22:47.702Z,79.99
2019-01-26T09:25:16.336Z,79.58
2019-01-26T09:27:45.204Z,79.83
2019-01-26T09:30:19.437Z,80.20
2019-01-26T09:32:48.043Z,80.38
2019-01-26T09:35:16.640Z,79.22
2019-01-26T09:37:45.665Z,79.54
2019-01-26T09:40:21.680Z,79.42
2019-01-26T09:42:50.404Z,79.24
2019-01-26T09:45:20.107Z,79.38
2019-01-26T09:47:48.919Z,80.02
2019-01-26T09:50:19.416Z,79.84
2019-01-26T09:52:48.051Z,79.66
2019-01-26T09:55:18.990Z,79.20
2019-01-26T09:57:47.603Z,79.48
2019-01-26T10:00:22.204Z,79.34
2019-01-26T10:02:50.794Z,79.33
2019-01-26T10:05:19.428Z,79.62
2019-01-26T10:07:48.735Z,81.67
2019-01-26T10:10:17.843Z,79.86
2019-01-26T10:12:46.446Z,78.94
2019-01-26T10:15:27.505Z,79.15
2019-01-26T10:17:56.405Z,79.58
2019-01-26T10:20:30.509Z,79.47
2019-01-26T10:22:59.133Z,79.19
2019-01-26T10:25:27.786Z,79.22
2019-01-26T10:27:56.402Z,79.79
2019-01-26T10:30:29.622Z,80.10
2019-01-26T10:32:58.218Z,79.26
2019-01-26T10:35:28.551Z,79.68
2019-01-26T10:37:57.149Z,78.74
2019-01-26T10:40:33.212Z,79.22
2019-01-26T10:43:01.921Z,80.46
2019-01-26T10:45:30.597Z,78.79
2019-01-26T10:47:59.254Z,78.20
2019-01-26T10:50:27.859Z,79.17
2019-01-26T10:52:56.741Z,78.51
2019-01-26T10:55:25.360Z,78.58
2019-01-26T10:57:53.970Z,77.85
2019-01-26T11:00:22.793Z,78.27
2019-01-26T11:02:51.400Z,78.53
2019-01-26T11:05:19.990Z,79.59
2019-01-26T11:07:48.686Z,79.00
2019-01-26T11:10:17.591Z,78.75
2019-01-26T11:12:46.219Z,78.39
2019-01-26T11:15:14.839Z,78.89
2019-01-26T11:17:43.546Z,80.35
2019-01-26T11:20:15.910Z,79.12
2019-01-26T11:22:44.612Z,78.09
2019-01-26T11:25:13.831Z,77.89
2019-01-26T11:27:42.444Z,77.50
2019-01-26T11:30:14.047Z,78.07
2019-01-26T11:32:42.599Z,77.85
2019-01-26T11:35:14.003Z,78.29
2019-01-26T11:37:42.638Z,78.09
2019-01-26T11:40:13.760Z,78.13
2019-01-26T11:42:42.383Z,78.13
2019-01-26T11:45:30.244Z,78.10
2019-01-26T11:48:18.201Z,78.12
2019-01-26T11:50:51.239Z,78.28
2019-01-26T11:53:19.884Z,78.67
2019-01-26T11:55:56.118Z,77.29
2019-01-26T11:58:25.484Z,75.97
2019-01-26T12:01:01.564Z,76.88
2019-01-26T12:03:34.785Z,77.70
2019-01-26T12:06:17.135Z,77.08
2019-01-26T12:08:45.725Z,77.69
2019-01-26T12:11:14.305Z,77.20
2019-01-26T12:13:42.951Z,77.09
2019-01-26T12:16:11.596Z,76.90
2019-01-26T12:18:43.245Z,77.04
2019-01-26T12:21:11.827Z,77.30
2019-01-26T12:23:40.399Z,77.04
2019-01-26T12:26:08.974Z,76.85
2019-01-26T12:28:37.597Z,76.65
2019-01-26T12:31:06.182Z,76.10
2019-01-26T12:33:34.893Z,74.60
2019-01-26T12:36:03.777Z,74.18
2019-01-26T12:38:32.407Z,74.27
2019-01-26T12:41:00.940Z,74.61
2019-01-26T12:43:29.561Z,75.42
2019-01-26T12:45:58.173Z,74.96
2019-01-26T12:48:26.822Z,74.92
2019-01-26T12:50:55.613Z,74.84
2019-01-26T12:53:24.226Z,74.33
2019-01-26T12:55:52.850Z,73.89
2019-01-26T12:58:21.468Z,73.80
2019-01-26T13:00:50.082Z,74.58
2019-01-26T13:03:18.580Z,74.93
2019-01-26T13:05:47.132Z,75.36
2019-01-26T13:08:15.729Z,73.98
2019-01-26T13:10:50.587Z,74.28
2019-01-26T13:13:19.171Z,74.54
2019-01-26T13:15:47.909Z,74.10
2019-01-26T13:18:16.605Z,74.65
2019-01-26T13:20:45.214Z,74.31
2019-01-26T13:23:13.829Z,75.10
2019-01-26T13:25:42.452Z,75.11
2019-01-26T13:28:11.079Z,75.16
2019-01-26T13:30:39.657Z,75.13
2019-01-26T13:33:08.334Z,74.67
2019-01-26T13:35:36.963Z,74.39
2019-01-26T13:38:05.562Z,74.44
2019-01-26T13:40:38.330Z,75.80
2019-01-26T13:43:06.273Z,73.97
2019-01-26T13:45:34.855Z,74.48
2019-01-26T13:48:03.539Z,75.10
2019-01-26T13:50:32.177Z,75.51
2019-01-26T13:53:00.980Z,75.44
2019-01-26T13:55:29.704Z,74.98
2019-01-26T13:57:58.305Z,75.46
2019-01-26T14:00:35.009Z,75.34
2019-01-26T14:03:03.592Z,75.40
2019-01-26T14:05:32.312Z,74.44
2019-01-26T14:08:00.933Z,74.25
2019-01-26T14:10:29.556Z,74.79
2019-01-26T14:12:58.078Z,74.84
2019-01-26T14:15:26.719Z,76.87
2019-01-26T14:17:56.128Z,75.70
2019-01-26T14:20:26.009Z,73.77
2019-01-26T14:22:54.932Z,73.26
2019-01-26T14:25:23.694Z,73.72
2019-01-26T14:27:52.333Z,73.33
2019-01-26T14:30:23.942Z,73.59
2019-01-26T14:32:52.875Z,74.28
2019-01-26T14:35:21.532Z,73.59
2019-01-26T14:37:50.130Z,74.26
2019-01-26T14:40:18.838Z,74.65
2019-01-26T14:42:53.926Z,74.52
2019-01-26T14:45:18.514Z,74.71
2019-01-26T14:47:47.138Z,75.13
2019-01-26T14:50:17.058Z,76.35
2019-01-26T14:52:45.831Z,75.19
2019-01-26T14:55:20.435Z,74.03
2019-01-26T14:57:48.953Z,74.06
2019-01-26T15:00:20.657Z,73.74
2019-01-26T15:02:49.179Z,74.31
2019-01-26T15:05:17.805Z,74.89
2019-01-26T15:07:46.409Z,74.42
2019-01-26T15:10:15.038Z,75.44
2019-01-26T15:12:43.626Z,75.76
2019-01-26T15:15:14.918Z,76.17
2019-01-26T15:17:43.534Z,77.32
2019-01-26T15:20:14.978Z,77.61
2019-01-26T15:22:43.626Z,77.52
2019-01-26T15:25:13.536Z,77.51
2019-01-26T15:27:42.134Z,78.40
2019-01-26T15:30:13.628Z,76.86
2019-01-26T15:32:42.189Z,76.40
2019-01-26T15:35:10.780Z,76.59
2019-01-26T15:37:39.461Z,76.09
2019-01-26T15:40:11.080Z,76.77
2019-01-26T15:42:39.729Z,76.92
2019-01-26T15:45:11.494Z,76.99
2019-01-26T15:47:40.102Z,76.60
2019-01-26T15:50:13.198Z,76.69
2019-01-26T15:52:41.660Z,76.69
2019-01-26T15:55:15.787Z,76.50
2019-01-26T15:57:44.425Z,77.00
2019-01-26T16:00:16.057Z,77.19
2019-01-26T16:02:44.673Z,78.27
2019-01-26T16:05:13.977Z,76.81
2019-01-26T16:07:42.606Z,76.12
2019-01-26T16:10:14.595Z,76.15
2019-01-26T16:12:43.224Z,75.83
2019-01-26T16:15:14.934Z,76.72
2019-01-26T16:17:43.613Z,75.74
2019-01-26T16:20:20.275Z,76.74
2019-01-26T16:22:45.258Z,76.79
2019-01-26T16:25:14.457Z,76.72
2019-01-26T16:27:43.244Z,77.74
2019-01-26T16:30:24.483Z,76.93
2019-01-26T16:32:53.033Z,77.73
2019-01-26T16:35:21.667Z,78.46
2019-01-26T16:37:50.301Z,80.48
2019-01-26T16:40:21.503Z,78.24
2019-01-26T16:42:50.152Z,78.24
2019-01-26T16:45:23.696Z,77.77
2019-01-26T16:47:52.307Z,77.44
2019-01-26T16:50:27.583Z,78.00
2019-01-26T16:52:53.447Z,78.11
2019-01-26T16:55:22.171Z,77.84
2019-01-26T16:57:50.740Z,78.72
2019-01-26T17:00:32.005Z,78.18
2019-01-26T17:03:00.622Z,78.40
2019-01-26T17:05:29.274Z,78.74
2019-01-26T17:07:57.921Z,79.25
2019-01-26T17:10:26.621Z,79.15
2019-01-26T17:12:55.215Z,80.39
2019-01-26T17:15:23.938Z,79.58
2019-01-26T17:17:52.438Z,78.55
2019-01-26T17:20:34.834Z,78.38
2019-01-26T17:22:59.761Z,77.73
2019-01-26T17:25:28.364Z,78.60
2019-01-26T17:27:56.982Z,78.66
2019-01-26T17:30:34.411Z,78.39
2019-01-26T17:33:07.411Z,79.02
2019-01-26T17:35:33.366Z,79.04
2019-01-26T17:38:01.974Z,78.85
2019-01-26T17:40:30.600Z,79.24
2019-01-26T17:42:59.267Z,78.40
2019-01-26T17:45:27.866Z,79.02
2019-01-26T17:47:56.726Z,79.39
2019-01-26T17:50:29.032Z,79.74
2019-01-26T17:52:57.674Z,78.62
2019-01-26T17:55:26.760Z,78.15
2019-01-26T17:57:55.380Z,78.74
2019-01-26T18:00:39.528Z,78.32
2019-01-26T18:03:08.103Z,78.15
2019-01-26T18:05:36.784Z,78.69
2019-01-26T18:08:05.379Z,78.43
2019-01-26T18:10:34.297Z,77.72
2019-01-26T18:13:02.884Z,78.15
2019-01-26T18:15:31.520Z,77.90
2019-01-26T18:18:00.190Z,77.94
2019-01-26T18:20:29.595Z,77.92
2019-01-26T18:22:59.556Z,77.85
2019-01-26T18:25:38.843Z,79.63
2019-01-26T18:28:07.432Z,77.50
2019-01-26T18:30:38.507Z,77.54
2019-01-26T18:33:07.082Z,78.17
2019-01-26T18:35:35.783Z,78.60
2019-01-26T18:38:05.158Z,78.78
2019-01-26T18:40:34.343Z,78.80
2019-01-26T18:43:02.914Z,78.74
2019-01-26T18:45:32.530Z,78.75
2019-01-26T18:48:01.142Z,78.33
2019-01-26T18:50:32.407Z,78.61
2019-01-26T18:53:01.057Z,78.22
2019-01-26T18:55:29.724Z,78.94
2019-01-26T18:57:58.356Z,79.11
2019-01-26T19:00:32.966Z,79.75
2019-01-26T19:03:07.219Z,78.34
2019-01-26T19:05:38.451Z,77.85
2019-01-26T19:08:07.528Z,77.62
2019-01-26T19:10:36.163Z,77.73
2019-01-26T19:13:04.997Z,77.82
2019-01-26T19:15:33.597Z,78.40
2019-01-26T19:18:02.207Z,77.78
2019-01-26T19:20:30.820Z,78.04
2019-01-26T19:22:59.515Z,78.45
2019-01-26T19:25:28.075Z,78.37
2019-01-26T19:27:57.112Z,78.00
2019-01-26T19:30:25.925Z,78.15
2019-01-26T19:32:54.517Z,77.95
2019-01-26T19:35:23.106Z,79.54
2019-01-26T19:37:51.657Z,77.85
2019-01-26T19:40:24.336Z,76.80
2019-01-26T19:42:52.995Z,76.73
2019-01-26T19:45:22.540Z,76.77
2019-01-26T19:47:51.044Z,76.47
2019-01-26T19:50:24.204Z,76.88
2019-01-26T19:52:53.420Z,76.29
2019-01-26T19:55:23.453Z,76.67
2019-01-26T19:57:52.146Z,76.28
2019-01-26T20:00:20.723Z,76.81
2019-01-26T20:02:49.360Z,76.26
2019-01-26T20:05:25.072Z,76.10
2019-01-26T20:07:53.927Z,76.31
2019-01-26T20:10:23.027Z,76.34
2019-01-26T20:12:51.623Z,77.25
2019-01-26T20:15:21.994Z,74.97
2019-01-26T20:17:50.557Z,74.78
2019-01-26T20:20:24.779Z,74.61
2019-01-26T20:22:53.437Z,75.33
2019-01-26T20:25:22.032Z,75.44
2019-01-26T20:27:50.658Z,75.25
2019-01-26T20:30:24.849Z,75.32
2019-01-26T20:32:53.513Z,75.80
2019-01-26T20:35:22.121Z,75.39
2019-01-26T20:37:50.738Z,75.22
2019-01-26T20:40:19.529Z,75.48
2019-01-26T20:42:48.187Z,75.48
2019-01-26T20:45:22.517Z,75.12
2019-01-26T20:47:51.250Z,76.35
2019-01-26T20:50:20.416Z,74.57
2019-01-26T20:52:49.020Z,74.48
2019-01-26T20:55:17.670Z,74.19
2019-01-26T20:57:46.382Z,74.76
2019-01-26T21:00:23.946Z,74.43
2019-01-26T21:02:52.509Z,75.05
2019-01-26T21:05:21.213Z,75.08
2019-01-26T21:07:49.815Z,75.53
2019-01-26T21:10:20.622Z,74.93
2019-01-26T21:12:49.808Z,74.72
2019-01-26T21:15:18.485Z,74.74
2019-01-26T21:17:47.666Z,75.00
2019-01-26T21:20:18.555Z,74.85
2019-01-26T21:22:47.662Z,80.75
2019-01-26T21:25:16.482Z,76.05
2019-01-26T21:27:45.204Z,75.10
2019-01-26T21:30:16.802Z,74.54
2019-01-26T21:32:45.487Z,74.45
2019-01-26T21:35:14.188Z,74.73
2019-01-26T21:37:42.800Z,74.67
2019-01-26T21:40:19.659Z,74.75
2019-01-26T21:42:48.251Z,74.70
2019-01-26T21:45:18.250Z,73.99
2019-01-26T21:47:47.729Z,73.99
2019-01-26T21:50:21.761Z,74.48
2019-01-26T21:52:50.338Z,73.94
2019-01-26T21:55:20.431Z,74.00
2019-01-26T21:57:49.022Z,75.98
2019-01-26T22:00:25.775Z,73.53
2019-01-26T22:02:54.372Z,72.82
2019-01-26T22:05:22.879Z,73.48
2019-01-26T22:07:51.536Z,73.22
2019-01-26T22:10:22.357Z,73.29
2019-01-26T22:12:50.871Z,73.58
2019-01-26T22:15:21.530Z,73.54
2019-01-26T22:17:50.180Z,72.87
2019-01-26T22:20:21.032Z,73.52
2019-01-26T22:22:49.946Z,73.48
2019-01-26T22:25:18.888Z,73.73
2019-01-26T22:27:47.919Z,73.39
2019-01-26T22:30:21.355Z,73.25
2019-01-26T22:32:49.950Z,74.46
2019-01-26T22:35:18.833Z,73.98
2019-01-26T22:37:47.980Z,72.97
2019-01-26T22:40:19.454Z,73.04
2019-01-26T22:42:48.068Z,72.55
2019-01-26T22:45:16.731Z,73.13
2019-01-26T22:47:45.352Z,72.36
2019-01-26T22:50:22.329Z,72.47
2019-01-26T22:52:50.999Z,73.01
2019-01-26T22:55:21.066Z,73.01
2019-01-26T22:57:49.784Z,73.41
2019-01-26T23:00:49.426Z,73.09
2019-01-26T23:03:19.287Z,72.84
2019-01-26T23:05:59.667Z,73.24
2019-01-26T23:08:34.108Z,73.27
2019-01-26T23:11:08.487Z,73.88
2019-01-26T23:13:38.647Z,72.71
2019-01-26T23:16:31.249Z,72.77
2019-01-26T23:19:30.762Z,72.25
2019-01-26T23:22:21.755Z,72.93
2019-01-26T23:25:02.035Z,72.49
2019-01-26T23:27:42.225Z,72.73
2019-01-26T23:30:25.477Z,72.85
2019-01-26T23:32:54.025Z,73.34
2019-01-26T23:35:22.668Z,73.64
2019-01-26T23:37:51.249Z,73.38
2019-01-26T23:40:19.875Z,73.13
2019-01-26T23:42:48.372Z,73.77
2019-01-26T23:45:17.005Z,75.26
2019-01-26T23:47:45.604Z,72.97
2019-01-26T23:50:14.182Z,73.17
2019-01-26T23:52:42.796Z,72.55
2019-01-26T23:55:11.366Z,72.48
2019-01-26T23:57:39.990Z,72.79
